createdAt,value
2022-09-28T00:12:37.111Z,3.75
2022-09-28T00:15:58.865Z,4.10
2022-09-28T00:22:26.985Z,3.90
2022-09-28T00:25:20.134Z,3.95
2022-09-28T00:28:29.489Z,3.60
2022-09-28T00:31:34.429Z,3.70
2022-09-28T00:34:44.762Z,4.00
2022-09-28T00:38:39.250Z,3.80
2022-09-28T00:42:17.487Z,3.70
2022-09-28T00:46:17.738Z,3.35
2022-09-28T00:49:17.518Z,4.05
2022-09-28T00:51:47.454Z,4.50
2022-09-28T00:54:17.453Z,4.00
2022-09-28T00:56:56.333Z,4.32
2022-09-28T00:59:25.070Z,4.70
2022-09-28T01:01:53.420Z,4.88
2022-09-28T01:04:27.976Z,5.28
2022-09-28T01:06:59.259Z,5.63
2022-09-28T01:09:29.049Z,4.85
2022-09-28T01:11:57.421Z,4.57
2022-09-28T01:14:27.292Z,4.90
2022-09-28T01:17:05.748Z,4.88
2022-09-28T01:20:19.482Z,5.05
2022-09-28T01:23:14.556Z,4.50
2022-09-28T01:25:52.051Z,4.53
2022-09-28T01:28:26.706Z,5.00
2022-09-28T01:31:03.688Z,4.75
2022-09-28T01:33:38.373Z,5.00
2022-09-28T01:36:11.321Z,5.13
2022-09-28T01:38:45.960Z,4.65
2022-09-28T01:41:17.615Z,4.78
2022-09-28T01:43:54.932Z,5.00
2022-09-28T01:46:28.131Z,4.80
2022-09-28T01:48:58.924Z,5.00
2022-09-28T01:51:33.407Z,5.32
2022-09-28T01:54:08.566Z,5.25
2022-09-28T01:56:41.867Z,4.75
2022-09-28T01:59:15.155Z,5.10
2022-09-28T02:01:49.043Z,5.10
2022-09-28T02:04:20.586Z,4.63
2022-09-28T02:06:55.103Z,5.55
2022-09-28T02:09:31.704Z,5.15
2022-09-28T02:12:07.882Z,5.28
2022-09-28T02:14:40.732Z,4.75
2022-09-28T02:17:10.711Z,5.05
2022-09-28T02:19:41.442Z,5.28
2022-09-28T02:22:23.331Z,5.25
2022-09-28T02:24:57.094Z,5.78
2022-09-28T02:27:35.946Z,4.80
2022-09-28T02:30:07.244Z,4.60
2022-09-28T02:32:40.316Z,5.47
2022-09-28T02:35:10.428Z,5.22
2022-09-28T02:37:39.113Z,5.80
2022-09-28T02:40:15.481Z,5.40
2022-09-28T02:42:55.073Z,5.40
2022-09-28T02:45:38.085Z,5.75
2022-09-28T02:48:31.463Z,5.88
2022-09-28T02:51:16.696Z,5.38
2022-09-28T02:54:06.999Z,5.37
2022-09-28T02:56:57.652Z,5.17
2022-09-28T02:59:36.815Z,5.30
2022-09-28T03:02:15.504Z,5.53
2022-09-28T03:04:48.389Z,5.07
2022-09-28T03:07:27.608Z,5.15
2022-09-28T03:10:01.887Z,5.45
2022-09-28T03:12:31.608Z,5.23
2022-09-28T03:15:14.830Z,5.40
2022-09-28T03:17:45.274Z,5.50
2022-09-28T03:20:15.105Z,6.27
2022-09-28T03:22:55.829Z,7.13
2022-09-28T03:25:32.127Z,6.13
2022-09-28T03:28:00.504Z,6.83
2022-09-28T03:30:29.730Z,7.57
2022-09-28T03:33:03.212Z,6.13
2022-09-28T03:35:33.492Z,7.57
2022-09-28T03:38:01.785Z,16.77
2022-09-28T03:40:32.310Z,16.40
2022-09-28T03:43:01.703Z,8.53
2022-09-28T03:45:30.300Z,11.40
2022-09-28T03:47:58.667Z,11.85
2022-09-28T03:50:28.678Z,13.05
2022-09-28T03:52:57.034Z,22.48
2022-09-28T03:55:25.296Z,23.60
2022-09-28T03:57:56.897Z,13.02
2022-09-28T04:00:25.517Z,11.82
2022-09-28T04:02:54.868Z,18.67
2022-09-28T04:05:23.147Z,24.25
2022-09-28T04:07:56.342Z,21.35
2022-09-28T04:10:24.813Z,24.83
2022-09-28T04:12:56.114Z,28.23
2022-09-28T04:15:24.850Z,17.35
2022-09-28T04:17:53.300Z,17.25
2022-09-28T04:20:41.122Z,12.15
2022-09-28T04:23:15.244Z,13.45
2022-09-28T04:25:47.858Z,22.63
2022-09-28T04:28:34.288Z,27.45
2022-09-28T04:31:02.705Z,20.73
2022-09-28T04:33:31.113Z,22.10
2022-09-28T04:36:00.770Z,22.35
2022-09-28T04:38:51.947Z,16.95
2022-09-28T04:41:19.814Z,18.20
2022-09-28T04:43:48.404Z,23.13
2022-09-28T04:46:16.925Z,22.17
2022-09-28T04:48:54.855Z,20.55
2022-09-28T04:51:41.786Z,22.80
2022-09-28T04:54:11.761Z,22.15
2022-09-28T04:56:40.281Z,22.35
2022-09-28T04:59:08.845Z,15.32
2022-09-28T05:01:38.324Z,14.30
2022-09-28T05:04:06.663Z,14.73
2022-09-28T05:06:40.872Z,23.83
2022-09-28T05:09:11.562Z,21.42
2022-09-28T05:11:39.967Z,14.45
2022-09-28T05:14:13.500Z,19.08
2022-09-28T05:16:42.148Z,16.98
2022-09-28T05:19:28.550Z,13.35
2022-09-28T05:22:04.554Z,16.05
2022-09-28T05:24:39.703Z,15.13
2022-09-28T05:27:08.010Z,14.93
2022-09-28T05:29:36.392Z,19.50
2022-09-28T05:32:27.787Z,18.10
2022-09-28T05:35:07.476Z,21.83
2022-09-28T05:37:42.621Z,25.00
2022-09-28T05:40:13.725Z,24.60
2022-09-28T05:42:42.454Z,24.33
2022-09-28T05:45:11.750Z,22.25
2022-09-28T05:47:43.964Z,25.40
2022-09-28T05:50:15.982Z,24.30
2022-09-28T05:52:45.234Z,24.15
2022-09-28T05:55:16.059Z,22.63
2022-09-28T05:57:44.900Z,28.20
2022-09-28T06:00:14.769Z,21.10
2022-09-28T06:02:58.184Z,22.58
2022-09-28T06:05:26.709Z,19.85
2022-09-28T06:07:57.397Z,24.55
2022-09-28T06:10:28.595Z,21.83
2022-09-28T06:13:01.097Z,18.10
2022-09-28T06:15:31.076Z,21.23
2022-09-28T06:18:02.709Z,25.50
2022-09-28T06:20:41.215Z,23.92
2022-09-28T06:23:20.738Z,25.98
2022-09-28T06:25:50.649Z,24.25
2022-09-28T06:28:19.634Z,24.45
2022-09-28T06:30:48.355Z,23.77
2022-09-28T06:33:19.235Z,22.15
2022-09-28T06:35:47.951Z,23.98
2022-09-28T06:38:16.439Z,23.75
2022-09-28T06:40:44.752Z,20.08
2022-09-28T06:43:15.916Z,24.75
2022-09-28T06:46:03.136Z,17.58
2022-09-28T06:48:46.637Z,26.13
2022-09-28T06:51:19.514Z,18.10
2022-09-28T06:54:08.719Z,16.05
2022-09-28T06:57:02.285Z,19.27
2022-09-28T06:59:32.509Z,20.10
2022-09-28T07:02:07.922Z,19.98
2022-09-28T07:04:56.503Z,22.23
2022-09-28T07:07:55.292Z,17.48
2022-09-28T07:10:43.603Z,20.67
2022-09-28T07:13:51.362Z,22.63
2022-09-28T07:16:28.932Z,23.58
2022-09-28T07:19:00.542Z,25.55
2022-09-28T07:21:30.635Z,24.55
2022-09-28T07:24:02.712Z,22.20
2022-09-28T07:26:49.520Z,22.52
2022-09-28T07:29:44.131Z,19.35
2022-09-28T07:32:37.568Z,19.02
2022-09-28T07:35:24.757Z,25.95
2022-09-28T07:38:00.411Z,22.30
2022-09-28T07:40:48.488Z,23.08
2022-09-28T07:43:20.709Z,24.30
2022-09-28T07:45:52.623Z,13.68
2022-09-28T07:48:22.936Z,22.60
2022-09-28T07:51:19.847Z,19.52
2022-09-28T07:54:08.460Z,13.10
2022-09-28T07:56:55.361Z,23.85
2022-09-28T07:59:49.885Z,16.80
2022-09-28T08:02:36.907Z,36.13
2022-09-28T08:05:10.806Z,44.22
2022-09-28T08:07:39.350Z,17.65
2022-09-28T08:10:14.137Z,23.73
2022-09-28T08:13:06.405Z,24.20
2022-09-28T08:15:37.199Z,12.90
2022-09-28T08:18:18.161Z,16.63
2022-09-28T08:21:05.708Z,12.23
2022-09-28T08:23:34.068Z,10.65
2022-09-28T08:26:02.726Z,11.35
2022-09-28T08:28:31.067Z,11.65
2022-09-28T08:31:03.353Z,14.07
2022-09-28T08:34:06.961Z,11.93
2022-09-28T08:37:00.350Z,11.48
2022-09-28T08:39:46.964Z,10.35
2022-09-28T08:42:57.694Z,11.35
2022-09-28T08:45:44.740Z,10.00
2022-09-28T08:49:13.454Z,10.52
2022-09-28T08:52:12.380Z,9.60
2022-09-28T08:54:59.186Z,9.70
2022-09-28T08:57:46.291Z,9.77
2022-09-28T09:00:22.275Z,8.38
2022-09-28T09:02:51.127Z,9.63
2022-09-28T09:05:25.534Z,8.25
2022-09-28T09:08:16.541Z,8.98
2022-09-28T09:10:53.169Z,8.75
2022-09-28T09:13:54.826Z,8.70
2022-09-28T09:16:40.632Z,8.43
2022-09-28T09:19:45.445Z,8.40
2022-09-28T09:22:41.895Z,8.60
2022-09-28T09:25:21.026Z,8.70
2022-09-28T09:28:17.211Z,8.50
2022-09-28T09:30:53.349Z,9.13
2022-09-28T09:33:45.187Z,7.80
2022-09-28T09:36:49.902Z,8.13
2022-09-28T09:39:53.278Z,7.35
2022-09-28T09:43:08.833Z,7.10
2022-09-28T09:46:00.271Z,8.35
2022-09-28T09:48:39.760Z,7.43
2022-09-28T09:51:19.136Z,7.50
2022-09-28T09:53:52.485Z,7.25
2022-09-28T09:56:26.068Z,6.60
2022-09-28T09:59:14.486Z,5.72
2022-09-28T10:02:11.952Z,6.20
2022-09-28T10:04:53.718Z,5.90
2022-09-28T10:07:34.591Z,5.15
2022-09-28T10:10:04.134Z,4.35
2022-09-28T10:12:49.509Z,4.35
2022-09-28T10:15:23.897Z,4.72
2022-09-28T10:18:27.638Z,4.40
2022-09-28T10:21:31.299Z,4.15
2022-09-28T10:24:03.490Z,4.05
2022-09-28T10:26:37.004Z,4.25
2022-09-28T10:29:13.195Z,4.30
2022-09-28T10:31:44.909Z,3.70
2022-09-28T10:34:27.633Z,4.22
2022-09-28T10:37:00.662Z,3.80
2022-09-28T10:39:37.682Z,3.58
2022-09-28T10:42:09.261Z,3.30
2022-09-28T10:44:51.607Z,3.78
2022-09-28T10:47:47.178Z,3.88
2022-09-28T10:50:23.846Z,3.50
2022-09-28T10:53:13.182Z,3.22
2022-09-28T10:56:02.365Z,3.20
2022-09-28T10:58:37.258Z,3.25
2022-09-28T11:01:10.960Z,3.40
2022-09-28T11:03:51.337Z,2.67
2022-09-28T11:06:26.219Z,2.40
2022-09-28T11:08:56.322Z,2.60
2022-09-28T11:11:25.030Z,2.20
2022-09-28T11:14:03.486Z,2.60
2022-09-28T11:16:37.482Z,2.88
2022-09-28T11:19:29.485Z,2.90
2022-09-28T11:21:57.563Z,3.28
2022-09-28T11:24:34.974Z,4.43
2022-09-28T11:27:05.390Z,2.90
2022-09-28T11:29:38.780Z,3.20
2022-09-28T11:32:27.813Z,3.30
2022-09-28T11:35:21.139Z,2.80
2022-09-28T11:38:12.486Z,2.85
2022-09-28T11:41:21.119Z,2.97
2022-09-28T11:44:11.397Z,2.20
2022-09-28T11:46:47.046Z,2.00
2022-09-28T11:49:27.002Z,2.33
2022-09-28T11:52:01.804Z,2.40
2022-09-28T11:54:35.284Z,2.53
2022-09-28T11:57:06.838Z,2.20
2022-09-28T11:59:39.849Z,2.00
2022-09-28T12:02:17.987Z,1.75
2022-09-28T12:04:56.878Z,1.90
2022-09-28T12:07:31.749Z,2.15
2022-09-28T12:10:04.250Z,1.48
2022-09-28T12:12:35.901Z,1.90
2022-09-28T12:15:19.041Z,1.80
2022-09-28T12:17:51.607Z,1.60
2022-09-28T12:20:23.897Z,1.50
2022-09-28T12:23:03.673Z,1.40
2022-09-28T12:25:40.618Z,1.73
2022-09-28T12:28:25.031Z,1.60
2022-09-28T12:30:54.569Z,1.33
2022-09-28T12:33:22.701Z,1.30
2022-09-28T12:36:03.813Z,1.30
2022-09-28T12:39:18.162Z,1.70
2022-09-28T12:42:05.714Z,1.08
2022-09-28T12:44:48.048Z,1.00
2022-09-28T12:47:40.798Z,1.30
2022-09-28T12:50:38.005Z,1.13
2022-09-28T12:53:27.427Z,1.17
2022-09-28T12:56:04.067Z,0.90
2022-09-28T12:58:48.246Z,0.88
2022-09-28T13:01:45.706Z,1.35
2022-09-28T13:04:30.213Z,1.00
2022-09-28T13:07:04.116Z,1.17
2022-09-28T13:09:37.501Z,1.10
2022-09-28T13:12:20.218Z,0.70
2022-09-28T13:15:18.377Z,0.73
2022-09-28T13:17:54.102Z,0.75
2022-09-28T13:20:32.206Z,0.70
2022-09-28T13:23:10.242Z,0.95
2022-09-28T13:25:44.749Z,1.13
2022-09-28T13:28:16.772Z,0.95
2022-09-28T13:30:46.176Z,0.70
2022-09-28T13:33:21.787Z,0.90
2022-09-28T13:35:49.862Z,0.98
2022-09-28T13:38:49.550Z,0.77
2022-09-28T13:41:32.154Z,0.77
2022-09-28T13:44:24.657Z,0.73
2022-09-28T13:47:20.548Z,0.60
2022-09-28T13:50:02.058Z,0.55
2022-09-28T13:52:41.321Z,0.70
2022-09-28T13:55:32.923Z,0.80
2022-09-28T13:58:05.307Z,0.73
2022-09-28T14:00:39.673Z,1.00
2022-09-28T14:03:24.074Z,0.90
2022-09-28T14:06:10.990Z,0.63
2022-09-28T14:08:44.835Z,0.80
2022-09-28T14:11:42.528Z,0.70
2022-09-28T14:14:29.181Z,1.08
2022-09-28T14:17:50.135Z,0.90
2022-09-28T14:20:23.233Z,1.20
2022-09-28T14:23:07.602Z,0.80
2022-09-28T14:25:42.226Z,0.70
2022-09-28T14:28:44.653Z,1.00
2022-09-28T14:31:18.386Z,0.70
2022-09-28T14:33:57.013Z,0.60
2022-09-28T14:36:42.672Z,0.50
2022-09-28T14:39:40.285Z,0.68
2022-09-28T14:42:15.707Z,0.40
2022-09-28T14:45:21.590Z,0.60
2022-09-28T14:48:15.292Z,0.40
2022-09-28T14:50:43.695Z,0.43
2022-09-28T14:53:16.529Z,0.47
2022-09-28T14:55:50.366Z,0.43
2022-09-28T14:58:25.102Z,0.35
2022-09-28T15:00:59.375Z,0.40
2022-09-28T15:03:29.391Z,0.47
2022-09-28T15:05:57.530Z,0.68
2022-09-28T15:08:37.339Z,0.20
2022-09-28T15:11:06.088Z,0.30
2022-09-28T15:13:34.240Z,0.50
2022-09-28T15:16:09.864Z,0.65
2022-09-28T15:19:18.768Z,0.52
2022-09-28T15:21:48.693Z,0.50
2022-09-28T15:24:30.899Z,0.40
2022-09-28T15:26:58.962Z,0.65
2022-09-28T15:29:31.287Z,0.43
2022-09-28T15:31:59.433Z,0.68
2022-09-28T15:34:49.092Z,0.50
2022-09-28T15:37:20.052Z,0.55
2022-09-28T15:39:51.384Z,0.40
2022-09-28T15:42:20.366Z,0.52
2022-09-28T15:45:04.098Z,0.65
2022-09-28T15:47:33.083Z,0.57
2022-09-28T15:50:03.941Z,0.70
2022-09-28T15:52:37.098Z,0.85
2022-09-28T15:55:21.969Z,0.70
2022-09-28T15:57:50.298Z,0.88
2022-09-28T16:00:28.260Z,1.00
2022-09-28T16:03:05.533Z,0.85
2022-09-28T16:05:46.216Z,1.10
2022-09-28T16:08:21.418Z,1.20
2022-09-28T16:11:04.905Z,0.93
2022-09-28T16:13:34.198Z,0.90
2022-09-28T16:16:02.774Z,0.93
2022-09-28T16:18:32.481Z,0.70
2022-09-28T16:21:31.612Z,0.85
2022-09-28T16:23:59.641Z,0.75
2022-09-28T16:26:34.470Z,0.63
2022-09-28T16:29:09.485Z,1.02
2022-09-28T16:31:41.321Z,1.05
2022-09-28T16:34:17.644Z,0.88
2022-09-28T16:36:47.669Z,1.17
2022-09-28T16:39:17.352Z,1.10
2022-09-28T16:41:49.698Z,1.00
2022-09-28T16:44:24.547Z,0.77
2022-09-28T16:46:55.105Z,1.00
2022-09-28T16:49:25.538Z,0.80
2022-09-28T16:51:54.269Z,1.20
2022-09-28T16:54:41.693Z,1.20
2022-09-28T16:57:13.210Z,1.40
2022-09-28T16:59:41.362Z,1.13
2022-09-28T17:02:45.038Z,1.17
2022-09-28T17:05:10.187Z,1.30
2022-09-28T17:07:38.279Z,1.80
2022-09-28T17:10:16.785Z,1.70
2022-09-28T17:12:46.445Z,2.03
2022-09-28T17:15:15.733Z,2.88
2022-09-28T17:17:43.838Z,3.45
2022-09-28T17:20:20.353Z,4.15
2022-09-28T17:22:48.494Z,6.07
2022-09-28T17:25:16.706Z,5.28
2022-09-28T17:27:47.680Z,6.40
2022-09-28T17:30:16.409Z,9.77
2022-09-28T17:32:47.112Z,10.45
2022-09-28T17:35:25.381Z,10.27
2022-09-28T17:37:54.335Z,10.23
2022-09-28T17:40:24.640Z,7.38
2022-09-28T17:42:56.169Z,7.13
2022-09-28T17:45:28.566Z,8.68
2022-09-28T17:47:57.381Z,8.70
2022-09-28T17:50:27.949Z,8.48
2022-09-28T17:52:57.771Z,8.90
2022-09-28T17:55:28.650Z,8.50
2022-09-28T17:57:58.595Z,8.57
2022-09-28T18:00:28.037Z,8.02
2022-09-28T18:02:56.178Z,7.32
2022-09-28T18:05:25.625Z,7.03
2022-09-28T18:07:53.822Z,5.88
2022-09-28T18:10:23.670Z,5.25
2022-09-28T18:12:52.084Z,5.22
2022-09-28T18:15:21.507Z,4.50
2022-09-28T18:17:49.618Z,4.18
2022-09-28T18:20:17.690Z,3.90
2022-09-28T18:22:45.718Z,4.38
2022-09-28T18:25:13.709Z,4.65
2022-09-28T18:27:41.725Z,4.32
2022-09-28T18:30:10.479Z,4.65
2022-09-28T18:32:39.834Z,4.32
2022-09-28T18:35:10.258Z,5.00
2022-09-28T18:37:39.963Z,5.00
2022-09-28T18:40:09.314Z,5.13
2022-09-28T18:42:37.470Z,4.75
2022-09-28T18:45:07.218Z,4.40
2022-09-28T18:47:35.799Z,4.97
2022-09-28T18:50:05.718Z,4.70
2022-09-28T18:52:36.318Z,4.35
2022-09-28T18:55:05.219Z,5.25
2022-09-28T18:57:34.194Z,4.68
2022-09-28T19:00:02.574Z,4.60
2022-09-28T19:02:30.645Z,5.03
2022-09-28T19:04:58.769Z,5.90
2022-09-28T19:07:28.623Z,6.10
2022-09-28T19:09:56.626Z,6.50
2022-09-28T19:12:24.931Z,6.47
2022-09-28T19:14:52.963Z,8.00
2022-09-28T19:17:21.052Z,8.18
2022-09-28T19:19:49.126Z,8.15
2022-09-28T19:22:17.802Z,7.38
2022-09-28T19:24:47.167Z,7.80
2022-09-28T19:27:15.268Z,7.43
2022-09-28T19:29:43.281Z,7.88
2022-09-28T19:32:12.233Z,7.60
2022-09-28T19:34:40.234Z,8.07
2022-09-28T19:37:08.342Z,8.38
2022-09-28T19:39:36.313Z,7.93
2022-09-28T19:42:05.945Z,8.38
2022-09-28T19:44:35.776Z,8.38
2022-09-28T19:47:07.183Z,9.32
2022-09-28T19:49:37.265Z,8.90
2022-09-28T19:52:13.398Z,9.68
2022-09-28T19:54:44.521Z,9.73
2022-09-28T19:57:16.069Z,10.70
2022-09-28T19:59:44.319Z,11.82
2022-09-28T20:02:14.139Z,11.27
2022-09-28T20:04:42.173Z,11.68
2022-09-28T20:07:10.602Z,12.00
2022-09-28T20:09:38.644Z,10.85
2022-09-28T20:12:06.855Z,11.68
2022-09-28T20:14:38.168Z,13.70
2022-09-28T20:17:08.441Z,15.35
2022-09-28T20:19:36.535Z,15.68
2022-09-28T20:22:04.858Z,19.75
2022-09-28T20:24:33.300Z,19.30
2022-09-28T20:27:02.429Z,20.27
2022-09-28T20:29:33.347Z,20.10
2022-09-28T20:32:04.019Z,20.88
2022-09-28T20:34:33.556Z,25.15
2022-09-28T20:37:01.771Z,25.85
2022-09-28T20:39:29.783Z,25.02
2022-09-28T20:41:57.818Z,23.80
2022-09-28T20:44:25.793Z,24.10
2022-09-28T20:46:53.819Z,25.10
2022-09-28T20:49:23.221Z,26.77
2022-09-28T20:51:51.230Z,22.25
2022-09-28T20:54:19.322Z,22.05
2022-09-28T20:56:48.277Z,23.58
2022-09-28T20:59:16.415Z,25.52
2022-09-28T21:01:44.764Z,23.48
2022-09-28T21:04:12.976Z,22.98
2022-09-28T21:06:43.869Z,22.55
2022-09-28T21:09:13.272Z,21.27
2022-09-28T21:11:41.631Z,21.58
2022-09-28T21:14:10.873Z,21.38
2022-09-28T21:16:39.883Z,20.30
2022-09-28T21:19:07.891Z,19.80
2022-09-28T21:21:36.088Z,17.85
2022-09-28T21:24:05.994Z,18.70
2022-09-28T21:26:35.102Z,17.85
2022-09-28T21:29:05.178Z,17.23
2022-09-28T21:31:39.091Z,16.45
2022-09-28T21:34:07.243Z,16.13
2022-09-28T21:36:35.396Z,15.75
2022-09-28T21:39:07.035Z,15.63
2022-09-28T21:41:39.105Z,15.07
2022-09-28T21:44:07.480Z,15.52
2022-09-28T21:46:36.484Z,16.20
2022-09-28T21:49:07.427Z,16.05
2022-09-28T21:51:36.120Z,15.40
2022-09-28T21:54:04.326Z,15.88
2022-09-28T21:56:32.390Z,15.27
2022-09-28T21:59:02.447Z,16.95
2022-09-28T22:01:31.793Z,18.33
2022-09-28T22:03:59.967Z,16.95
2022-09-28T22:06:29.076Z,18.75
2022-09-28T22:08:57.757Z,16.48
2022-09-28T22:11:27.234Z,15.98
2022-09-28T22:13:57.074Z,15.07
2022-09-28T22:16:28.265Z,15.68
2022-09-28T22:18:56.513Z,15.48
2022-09-28T22:21:25.753Z,16.02
2022-09-28T22:23:54.031Z,14.20
2022-09-28T22:26:25.165Z,13.85
2022-09-28T22:28:54.886Z,12.85
2022-09-28T22:31:24.867Z,12.82
2022-09-28T22:33:54.869Z,13.25
2022-09-28T22:36:23.370Z,11.75
2022-09-28T22:38:52.066Z,12.98
2022-09-28T22:41:21.514Z,11.75
2022-09-28T22:43:50.101Z,12.75
2022-09-28T22:46:19.599Z,12.60
2022-09-28T22:48:48.893Z,12.90
2022-09-28T22:51:18.393Z,11.77
2022-09-28T22:53:46.869Z,11.52
2022-09-28T22:56:18.669Z,11.35
2022-09-28T22:58:47.389Z,11.70
2022-09-28T23:01:17.821Z,10.10
2022-09-28T23:03:46.394Z,12.02
2022-09-28T23:06:17.105Z,11.30
2022-09-28T23:08:47.549Z,10.93
2022-09-28T23:11:15.851Z,11.57
2022-09-28T23:13:44.481Z,17.65
2022-09-28T23:16:14.912Z,16.45
2022-09-28T23:18:43.677Z,16.17
2022-09-28T23:21:13.430Z,16.13
2022-09-28T23:23:41.814Z,14.55
2022-09-28T23:26:16.629Z,13.93
2022-09-28T23:28:45.723Z,12.80
2022-09-28T23:31:16.216Z,12.68
2022-09-28T23:33:44.883Z,12.73
2022-09-28T23:36:12.887Z,12.65
2022-09-28T23:38:41.093Z,13.50
2022-09-28T23:41:09.971Z,11.85
2022-09-28T23:43:39.469Z,12.07
2022-09-28T23:46:07.733Z,11.25
2022-09-28T23:48:36.031Z,11.57
2022-09-28T23:51:04.687Z,11.50
2022-09-28T23:53:33.298Z,11.18
2022-09-28T23:56:01.853Z,11.82
2022-09-28T23:58:29.907Z,11.52
